Campbellford, Canada
Current Conditions -  °F | °C
As of 4:00 AM on Saturday 20 Dec 2014 (Local Time) from CYTR Reporting Station
Clear Clear  
Wind Chill: 16°   Ceiling: Unl
Heat Index: 16°   Visibility: 15mi
Dew Point: 12°   Wind: 3mph
Humidity: 86%   Direction: 20°NNE
Pressure: 30.25"   Gusts: NA
Location:  44.3°N, 77.8°W
Report Text: CYTR 200900Z 02003KT 15SM SKC M09/M11 A3025 RMK SLP251
Loading
Personal Weather Stations






























Interactive Weather Map New forecast layout! Learn more

10-Day Weather Forecast

Advertisements
Track Severe Weather on mobile